createdAt,value
2019-03-06T00:02:06.669Z,4.10
2019-03-06T00:04:37.981Z,4.10
2019-03-06T00:07:09.828Z,4.10
2019-03-06T00:09:41.062Z,4.10
2019-03-06T00:12:12.514Z,4.20
2019-03-06T00:14:44.485Z,4.20
2019-03-06T00:17:15.842Z,4.20
2019-03-06T00:19:47.415Z,4.20
2019-03-06T00:22:18.780Z,4.20
2019-03-06T00:24:51.118Z,4.10
2019-03-06T00:27:22.597Z,4.10
2019-03-06T00:29:54.616Z,4.10
2019-03-06T00:32:26.488Z,4.00
2019-03-06T00:34:59.613Z,4.00
2019-03-06T00:37:31.355Z,4.00
2019-03-06T00:40:09.458Z,4.10
2019-03-06T00:42:45.842Z,4.10
2019-03-06T00:45:18.188Z,4.00
2019-03-06T00:47:49.649Z,3.90
2019-03-06T00:50:21.125Z,3.90
2019-03-06T00:52:52.678Z,3.90
2019-03-06T00:55:24.094Z,3.80
2019-03-06T00:57:56.605Z,3.80
2019-03-06T01:00:28.264Z,3.70
2019-03-06T01:02:59.621Z,3.70
2019-03-06T01:05:31.713Z,3.80
2019-03-06T01:08:03.355Z,3.80
2019-03-06T01:10:34.814Z,3.90
2019-03-06T01:13:06.405Z,3.90
2019-03-06T01:15:38.308Z,3.90
2019-03-06T01:18:09.676Z,4.00
2019-03-06T01:20:41.041Z,4.10
2019-03-06T01:23:12.411Z,4.10
2019-03-06T01:25:45.171Z,4.00
2019-03-06T01:28:17.791Z,4.00
2019-03-06T01:30:49.205Z,4.00
2019-03-06T01:33:34.997Z,4.00
2019-03-06T01:36:21.389Z,4.10
2019-03-06T01:39:12.657Z,4.20
2019-03-06T01:41:58.686Z,4.20
2019-03-06T01:44:49.043Z,4.30
2019-03-06T01:47:20.435Z,4.20
2019-03-06T01:49:51.815Z,4.10
2019-03-06T01:52:23.068Z,3.90
2019-03-06T01:54:54.442Z,3.90
2019-03-06T01:57:25.831Z,3.90
2019-03-06T01:59:57.178Z,3.90
2019-03-06T02:02:28.585Z,3.90
2019-03-06T02:04:59.926Z,3.80
2019-03-06T02:07:31.600Z,3.80
2019-03-06T02:10:02.966Z,3.70
2019-03-06T02:12:34.412Z,3.60
2019-03-06T02:15:06.831Z,3.40
2019-03-06T02:17:38.561Z,3.30
2019-03-06T02:20:13.531Z,3.10
2019-03-06T02:22:45.089Z,3.00
2019-03-06T02:25:16.879Z,3.00
2019-03-06T02:27:48.300Z,2.90
2019-03-06T02:30:21.567Z,3.00
2019-03-06T02:32:52.881Z,3.00
2019-03-06T02:35:24.789Z,3.00
2019-03-06T02:37:56.263Z,2.90
2019-03-06T02:40:27.540Z,2.80
2019-03-06T02:42:58.683Z,2.70
2019-03-06T02:45:29.956Z,2.50
2019-03-06T02:48:01.172Z,2.40
2019-03-06T02:50:32.735Z,2.30
2019-03-06T02:53:04.105Z,2.40
2019-03-06T02:55:35.412Z,2.30
2019-03-06T02:58:19.460Z,2.30
2019-03-06T03:01:09.595Z,2.30
2019-03-06T03:04:05.866Z,2.20
2019-03-06T03:06:41.127Z,2.00
2019-03-06T03:09:19.074Z,1.90
2019-03-06T03:11:50.360Z,1.80
2019-03-06T03:14:21.998Z,1.80
2019-03-06T03:16:53.322Z,1.80
2019-03-06T03:19:24.760Z,1.90
2019-03-06T03:21:56.250Z,1.90
2019-03-06T03:24:27.370Z,1.80
2019-03-06T03:26:58.584Z,1.70
2019-03-06T03:29:29.692Z,1.70
2019-03-06T03:32:00.806Z,1.80
2019-03-06T03:34:31.987Z,1.80
2019-03-06T03:37:03.454Z,1.70
2019-03-06T03:39:34.591Z,1.60
2019-03-06T03:42:05.966Z,1.70
2019-03-06T03:44:37.271Z,1.70
2019-03-06T03:47:09.225Z,1.70
2019-03-06T03:49:40.543Z,1.70
2019-03-06T03:52:12.008Z,1.60
2019-03-06T03:54:43.520Z,1.60
2019-03-06T03:57:15.351Z,1.60
2019-03-06T03:59:46.591Z,1.70
2019-03-06T04:02:18.152Z,1.70
2019-03-06T04:04:49.318Z,1.70
2019-03-06T04:07:20.836Z,1.70
2019-03-06T04:09:52.066Z,1.70
2019-03-06T04:12:23.584Z,1.70
2019-03-06T04:14:54.815Z,1.70
2019-03-06T04:17:26.324Z,1.30
2019-03-06T04:19:57.747Z,1.80
2019-03-06T04:22:29.164Z,1.80
2019-03-06T04:25:00.463Z,1.80
2019-03-06T04:27:31.743Z,1.80
2019-03-06T04:30:02.953Z,1.90
2019-03-06T04:32:34.264Z,1.90
2019-03-06T04:35:07.158Z,1.80
2019-03-06T04:37:38.735Z,1.80
2019-03-06T04:40:10.298Z,1.80
2019-03-06T04:42:41.546Z,1.90
2019-03-06T04:45:13.288Z,2.00
2019-03-06T04:47:44.663Z,2.00
2019-03-06T04:50:16.202Z,2.20
2019-03-06T04:52:48.067Z,2.20
2019-03-06T04:55:19.488Z,2.30
2019-03-06T04:57:50.719Z,2.30
2019-03-06T05:00:21.973Z,2.20
2019-03-06T05:02:53.934Z,2.20
2019-03-06T05:05:25.827Z,2.10
2019-03-06T05:07:57.654Z,2.00
2019-03-06T05:10:29.057Z,2.10
2019-03-06T05:13:00.624Z,2.10
2019-03-06T05:15:31.965Z,2.10
2019-03-06T05:18:31.265Z,2.10
2019-03-06T05:21:02.590Z,2.10
2019-03-06T05:23:33.843Z,2.00
2019-03-06T05:26:05.281Z,2.00
2019-03-06T05:28:36.692Z,1.90
2019-03-06T05:31:07.850Z,1.80
2019-03-06T05:33:39.049Z,1.80
2019-03-06T05:36:39.537Z,1.70
2019-03-06T05:39:12.534Z,1.70
2019-03-06T05:41:44.161Z,1.80
2019-03-06T05:44:17.328Z,1.80
2019-03-06T05:46:49.331Z,1.90
2019-03-06T05:49:20.805Z,1.90
2019-03-06T05:51:51.993Z,1.90
2019-03-06T05:54:24.678Z,1.80
2019-03-06T05:56:55.929Z,1.80
2019-03-06T05:59:27.434Z,1.90
2019-03-06T06:01:59.239Z,2.00
2019-03-06T06:04:30.398Z,2.10
2019-03-06T06:07:01.651Z,2.10
2019-03-06T06:09:33.184Z,2.10
2019-03-06T06:12:04.435Z,2.10
2019-03-06T06:14:35.842Z,2.20
2019-03-06T06:17:07.224Z,2.20
2019-03-06T06:19:38.755Z,2.20
2019-03-06T06:22:27.022Z,2.20
2019-03-06T06:24:58.222Z,2.20
2019-03-06T06:27:30.447Z,2.30
2019-03-06T06:30:01.947Z,2.40
2019-03-06T06:32:33.680Z,2.50
2019-03-06T06:35:05.477Z,2.60
2019-03-06T06:37:37.035Z,2.80
2019-03-06T06:40:09.385Z,2.90
2019-03-06T06:42:40.627Z,3.00
2019-03-06T06:45:12.056Z,3.10
2019-03-06T06:48:12.367Z,3.10
2019-03-06T06:51:04.701Z,3.20
2019-03-06T06:54:01.428Z,3.10
2019-03-06T06:57:39.169Z,3.00
2019-03-06T07:01:08.670Z,3.00
2019-03-06T07:04:43.793Z,3.00
2019-03-06T07:07:37.500Z,3.20
2019-03-06T07:10:39.996Z,3.50
2019-03-06T07:13:33.053Z,3.80
2019-03-06T07:16:27.499Z,4.20
2019-03-06T07:19:20.741Z,4.60
2019-03-06T07:22:14.361Z,4.90
2019-03-06T07:25:08.881Z,5.20
2019-03-06T07:28:05.318Z,5.40
2019-03-06T07:30:59.644Z,5.60
2019-03-06T07:33:50.096Z,5.90
2019-03-06T07:36:40.336Z,6.00
2019-03-06T07:39:21.294Z,6.20
2019-03-06T07:42:04.909Z,6.40
2019-03-06T07:44:50.746Z,6.40
2019-03-06T07:47:53.051Z,6.60
2019-03-06T07:50:41.606Z,6.80
2019-03-06T07:54:03.870Z,6.70
2019-03-06T07:57:00.392Z,6.70
2019-03-06T07:59:32.340Z,7.20
2019-03-06T08:02:09.244Z,7.20
2019-03-06T08:04:47.699Z,7.50
2019-03-06T08:07:18.938Z,7.50
2019-03-06T08:09:51.109Z,7.50
2019-03-06T08:12:34.586Z,7.50
2019-03-06T08:15:32.903Z,7.60
2019-03-06T08:18:23.461Z,7.50
2019-03-06T08:21:02.973Z,7.80
2019-03-06T08:23:44.250Z,8.20
2019-03-06T08:26:15.621Z,8.20
2019-03-06T08:28:47.097Z,8.30
2019-03-06T08:31:29.260Z,8.50
2019-03-06T08:34:00.939Z,8.70
2019-03-06T08:36:32.691Z,9.10
2019-03-06T08:39:05.660Z,9.50
2019-03-06T08:41:39.032Z,9.60
2019-03-06T08:44:10.370Z,9.50
2019-03-06T08:47:00.812Z,9.50
2019-03-06T08:49:59.987Z,9.60
2019-03-06T08:52:42.719Z,9.70
2019-03-06T08:55:31.934Z,9.90
2019-03-06T08:58:25.561Z,10.10
2019-03-06T09:01:35.775Z,10.20
2019-03-06T09:04:34.721Z,10.30
2019-03-06T09:07:19.043Z,10.80
2019-03-06T09:09:56.783Z,10.80
2019-03-06T09:12:43.562Z,11.30
2019-03-06T09:15:36.353Z,11.60
2019-03-06T09:18:16.846Z,12.20
2019-03-06T09:21:10.048Z,12.00
2019-03-06T09:24:12.850Z,12.10
2019-03-06T09:26:51.362Z,12.30
2019-03-06T09:29:37.833Z,12.00
2019-03-06T09:32:26.420Z,12.00
2019-03-06T09:35:29.053Z,12.20
2019-03-06T09:38:35.179Z,12.20
2019-03-06T09:41:27.266Z,12.40
2019-03-06T09:44:26.527Z,12.30
2019-03-06T09:47:23.345Z,12.10
2019-03-06T09:50:28.784Z,11.90
2019-03-06T09:53:08.831Z,12.10
2019-03-06T09:55:59.498Z,12.40
2019-03-06T09:58:48.319Z,12.20
2019-03-06T10:01:35.799Z,11.90
2019-03-06T10:04:25.039Z,12.40
2019-03-06T10:07:24.845Z,12.50
2019-03-06T10:10:24.724Z,12.00
2019-03-06T10:13:30.682Z,12.00
2019-03-06T10:16:20.928Z,12.10
2019-03-06T10:19:04.335Z,11.90
2019-03-06T10:21:35.941Z,12.40
2019-03-06T10:24:07.590Z,12.90
2019-03-06T10:26:39.102Z,13.10
2019-03-06T10:29:10.478Z,13.30
2019-03-06T10:31:42.004Z,13.50
2019-03-06T10:34:13.690Z,13.40
2019-03-06T10:36:45.525Z,13.60
2019-03-06T10:39:17.968Z,13.90
2019-03-06T10:41:49.443Z,14.10
2019-03-06T10:44:28.795Z,14.30
2019-03-06T10:46:54.077Z,14.00
2019-03-06T10:49:25.823Z,14.30
2019-03-06T10:51:57.786Z,14.70
2019-03-06T10:54:29.535Z,14.50
2019-03-06T10:57:01.758Z,14.70
2019-03-06T10:59:33.855Z,15.20
2019-03-06T11:02:05.910Z,15.30
2019-03-06T11:04:43.742Z,15.20
2019-03-06T11:07:15.868Z,15.00
2019-03-06T11:09:47.332Z,15.20
2019-03-06T11:12:19.346Z,15.00
2019-03-06T11:14:51.245Z,14.60
2019-03-06T11:17:23.573Z,15.00
2019-03-06T11:19:55.363Z,15.20
2019-03-06T11:22:26.903Z,15.40
2019-03-06T11:24:58.426Z,15.80
2019-03-06T11:27:29.939Z,16.20
2019-03-06T11:30:01.515Z,15.70
2019-03-06T11:32:33.806Z,15.30
2019-03-06T11:35:06.349Z,14.70
2019-03-06T11:37:37.801Z,14.30
2019-03-06T11:40:11.041Z,14.50
2019-03-06T11:42:42.937Z,14.30
2019-03-06T11:45:16.888Z,14.10
2019-03-06T11:47:49.155Z,13.90
2019-03-06T11:50:21.037Z,13.90
2019-03-06T11:52:53.201Z,13.80
2019-03-06T11:55:25.440Z,14.00
2019-03-06T11:57:57.162Z,13.90
2019-03-06T12:00:38.566Z,13.60
2019-03-06T12:03:10.251Z,13.60
2019-03-06T12:05:42.189Z,13.90
2019-03-06T12:08:15.374Z,13.90
2019-03-06T12:10:47.616Z,13.80
2019-03-06T12:13:20.269Z,13.70
2019-03-06T12:15:52.656Z,13.60
2019-03-06T12:18:25.089Z,13.40
2019-03-06T12:20:57.113Z,13.60
2019-03-06T12:23:29.320Z,13.70
2019-03-06T12:26:01.533Z,13.50
2019-03-06T12:28:32.865Z,13.40
2019-03-06T12:31:07.530Z,13.30
2019-03-06T12:33:39.436Z,13.20
2019-03-06T12:36:11.141Z,13.00
2019-03-06T12:38:42.494Z,12.80
2019-03-06T12:41:13.974Z,12.80
2019-03-06T12:43:45.462Z,12.80
2019-03-06T12:46:23.946Z,12.80
2019-03-06T12:49:04.229Z,13.00
2019-03-06T12:51:37.739Z,13.00
2019-03-06T12:54:10.201Z,14.20
2019-03-06T12:56:42.715Z,12.90
2019-03-06T12:59:14.523Z,12.90
2019-03-06T13:01:46.205Z,12.80
2019-03-06T13:04:18.080Z,12.80
2019-03-06T13:06:49.987Z,12.70
2019-03-06T13:09:23.190Z,12.70
2019-03-06T13:11:54.774Z,12.60
2019-03-06T13:14:27.510Z,12.50
2019-03-06T13:16:59.329Z,10.50
2019-03-06T13:19:30.799Z,12.50
2019-03-06T13:22:10.935Z,12.40
2019-03-06T13:24:35.534Z,12.40
2019-03-06T13:27:07.325Z,12.40
2019-03-06T13:29:38.641Z,12.40
2019-03-06T13:32:11.979Z,12.50
2019-03-06T13:34:50.793Z,12.50
2019-03-06T13:37:20.647Z,12.50
2019-03-06T13:39:51.962Z,12.50
2019-03-06T13:42:24.372Z,12.40
2019-03-06T13:44:56.546Z,12.30
2019-03-06T13:47:28.746Z,12.40
2019-03-06T13:50:01.106Z,12.40
2019-03-06T13:52:34.491Z,12.30
2019-03-06T13:55:08.314Z,12.40
2019-03-06T13:57:40.582Z,12.40
2019-03-06T14:00:16.177Z,12.40
2019-03-06T14:02:48.373Z,12.40
2019-03-06T14:05:20.613Z,12.40
2019-03-06T14:07:56.343Z,12.40
2019-03-06T14:10:25.824Z,12.50
2019-03-06T14:12:57.729Z,12.50
2019-03-06T14:15:29.932Z,12.50
2019-03-06T14:18:01.423Z,12.50
2019-03-06T14:20:32.887Z,12.60
2019-03-06T14:23:04.734Z,12.60
2019-03-06T14:25:36.342Z,12.80
2019-03-06T14:28:07.893Z,12.90
2019-03-06T14:30:40.295Z,13.00
2019-03-06T14:33:12.750Z,13.30
2019-03-06T14:35:44.265Z,13.70
2019-03-06T14:38:16.193Z,14.10
2019-03-06T14:40:48.814Z,14.20
2019-03-06T14:43:20.848Z,14.10
2019-03-06T14:45:52.127Z,14.10
2019-03-06T14:48:23.661Z,14.00
2019-03-06T14:50:55.069Z,14.00
2019-03-06T14:53:26.480Z,14.00
2019-03-06T14:55:57.894Z,14.10
2019-03-06T14:58:29.181Z,14.10
2019-03-06T15:01:00.479Z,14.30
2019-03-06T15:03:32.417Z,14.20
2019-03-06T15:06:04.191Z,14.20
2019-03-06T15:08:35.488Z,13.80
2019-03-06T15:11:06.876Z,13.60
2019-03-06T15:13:38.744Z,13.40
2019-03-06T15:16:10.072Z,13.20
2019-03-06T15:18:41.446Z,13.00
2019-03-06T15:21:12.863Z,12.90
2019-03-06T15:23:44.258Z,12.70
2019-03-06T15:26:15.913Z,12.60
2019-03-06T15:28:48.186Z,12.50
2019-03-06T15:31:19.464Z,12.40
2019-03-06T15:33:50.972Z,12.20
2019-03-06T15:36:22.638Z,12.20
2019-03-06T15:38:53.954Z,12.10
2019-03-06T15:41:25.125Z,12.00
2019-03-06T15:43:56.960Z,11.90
2019-03-06T15:46:28.609Z,11.80
2019-03-06T15:48:59.827Z,11.80
2019-03-06T15:51:31.737Z,11.70
2019-03-06T15:54:03.610Z,11.60
2019-03-06T15:56:35.381Z,11.50
2019-03-06T15:59:14.608Z,11.40
2019-03-06T16:01:40.090Z,11.30
2019-03-06T16:04:11.479Z,11.20
2019-03-06T16:06:42.633Z,11.10
2019-03-06T16:09:14.152Z,11.00
2019-03-06T16:11:45.971Z,10.90
2019-03-06T16:14:17.638Z,10.80
2019-03-06T16:16:48.955Z,10.70
2019-03-06T16:19:20.256Z,10.60
2019-03-06T16:21:51.592Z,10.50
2019-03-06T16:24:24.234Z,10.30
2019-03-06T16:26:55.666Z,10.20
2019-03-06T16:29:26.913Z,10.10
2019-03-06T16:31:58.408Z,10.10
2019-03-06T16:34:29.647Z,10.00
2019-03-06T16:37:01.020Z,9.90
2019-03-06T16:39:33.658Z,9.80
2019-03-06T16:42:05.012Z,9.80
2019-03-06T16:44:36.381Z,9.80
2019-03-06T16:47:08.190Z,9.80
2019-03-06T16:49:39.807Z,9.70
2019-03-06T16:52:11.322Z,9.60
2019-03-06T16:54:42.629Z,9.50
2019-03-06T16:57:14.213Z,9.60
2019-03-06T16:59:45.536Z,9.50
2019-03-06T17:02:17.390Z,9.50
2019-03-06T17:04:48.788Z,9.50
2019-03-06T17:07:20.181Z,9.50
2019-03-06T17:09:51.331Z,9.40
2019-03-06T17:12:22.555Z,9.40
2019-03-06T17:14:54.167Z,9.30
2019-03-06T17:17:25.982Z,9.20
2019-03-06T17:19:57.382Z,9.20
2019-03-06T17:22:28.645Z,9.10
2019-03-06T17:24:59.883Z,9.10
2019-03-06T17:27:31.466Z,9.10
2019-03-06T17:30:04.179Z,9.10
2019-03-06T17:32:36.040Z,9.10
2019-03-06T17:35:07.750Z,9.10
2019-03-06T17:37:40.322Z,9.10
2019-03-06T17:40:14.085Z,9.10
2019-03-06T17:42:46.452Z,9.10
2019-03-06T17:45:18.734Z,9.00
2019-03-06T17:47:50.164Z,9.00
2019-03-06T17:50:22.239Z,9.00
2019-03-06T17:52:53.872Z,8.90
2019-03-06T17:55:25.360Z,8.90
2019-03-06T17:57:56.698Z,8.80
2019-03-06T18:00:42.043Z,8.90
2019-03-06T18:03:15.360Z,8.80
2019-03-06T18:05:46.930Z,8.80
2019-03-06T18:08:18.471Z,8.80
2019-03-06T18:10:50.183Z,8.80
2019-03-06T18:13:21.882Z,8.80
2019-03-06T18:15:53.320Z,8.80
2019-03-06T18:18:24.643Z,8.70
2019-03-06T18:20:56.392Z,8.70
2019-03-06T18:23:28.145Z,8.60
2019-03-06T18:25:59.700Z,8.60
2019-03-06T18:28:31.246Z,8.70
2019-03-06T18:31:02.648Z,8.70
2019-03-06T18:33:33.902Z,8.60
2019-03-06T18:36:05.361Z,8.60
2019-03-06T18:38:36.661Z,8.50
2019-03-06T18:41:08.135Z,8.50
2019-03-06T18:43:39.789Z,8.40
2019-03-06T18:46:11.029Z,8.40
2019-03-06T18:48:42.520Z,8.40
2019-03-06T18:51:13.962Z,8.20
2019-03-06T18:53:45.222Z,8.20
2019-03-06T18:56:16.656Z,8.20
2019-03-06T18:58:48.312Z,8.30
2019-03-06T19:01:19.646Z,8.20
2019-03-06T19:03:51.115Z,8.10
2019-03-06T19:06:22.768Z,8.20
2019-03-06T19:08:54.138Z,8.20
2019-03-06T19:11:26.180Z,8.10
2019-03-06T19:13:57.586Z,8.00
2019-03-06T19:16:29.034Z,7.90
2019-03-06T19:19:00.430Z,7.90
2019-03-06T19:21:31.987Z,7.70
2019-03-06T19:24:03.293Z,7.60
2019-03-06T19:26:34.875Z,7.50
2019-03-06T19:29:06.616Z,7.50
2019-03-06T19:31:38.403Z,7.50
2019-03-06T19:34:09.843Z,7.50
2019-03-06T19:36:41.188Z,7.50
2019-03-06T19:39:12.499Z,7.50
2019-03-06T19:41:43.892Z,7.50
2019-03-06T19:44:15.189Z,7.50
2019-03-06T19:46:47.009Z,7.40
2019-03-06T19:49:18.380Z,7.30
2019-03-06T19:51:51.680Z,7.30
2019-03-06T19:54:23.224Z,7.30
2019-03-06T19:56:55.070Z,7.30
2019-03-06T19:59:27.721Z,7.40
2019-03-06T20:01:59.665Z,7.40
2019-03-06T20:04:31.235Z,7.50
2019-03-06T20:07:02.749Z,7.50
2019-03-06T20:09:34.200Z,7.50
2019-03-06T20:12:05.741Z,7.50
2019-03-06T20:14:37.138Z,7.40
2019-03-06T20:17:08.434Z,7.40
2019-03-06T20:19:39.760Z,7.40
2019-03-06T20:22:11.116Z,7.50
2019-03-06T20:24:43.375Z,7.40
2019-03-06T20:27:16.056Z,7.40
2019-03-06T20:29:48.194Z,7.40
2019-03-06T20:32:19.478Z,7.30
2019-03-06T20:34:50.766Z,7.30
2019-03-06T20:37:22.403Z,7.20
2019-03-06T20:39:53.746Z,7.20
2019-03-06T20:42:25.329Z,7.00
2019-03-06T20:44:56.747Z,6.80
2019-03-06T20:47:29.517Z,6.60
2019-03-06T20:50:01.408Z,6.50
2019-03-06T20:52:32.923Z,6.40
2019-03-06T20:55:04.445Z,6.30
2019-03-06T20:57:35.912Z,6.30
2019-03-06T21:00:11.864Z,6.30
2019-03-06T21:02:43.610Z,6.20
2019-03-06T21:05:16.038Z,6.10
2019-03-06T21:07:47.439Z,5.90
2019-03-06T21:10:18.984Z,5.90
2019-03-06T21:12:50.321Z,5.90
2019-03-06T21:15:21.814Z,5.90
2019-03-06T21:17:53.322Z,5.90
2019-03-06T21:20:24.865Z,6.00
2019-03-06T21:22:56.208Z,6.00
2019-03-06T21:25:27.738Z,6.10
2019-03-06T21:27:59.209Z,6.20
2019-03-06T21:30:34.352Z,6.30
2019-03-06T21:33:06.252Z,6.40
2019-03-06T21:35:37.692Z,6.40
2019-03-06T21:38:09.130Z,6.50
2019-03-06T21:40:40.451Z,6.60
2019-03-06T21:43:12.227Z,6.70
2019-03-06T21:45:43.848Z,6.70
2019-03-06T21:48:15.200Z,6.90
2019-03-06T21:50:46.556Z,7.00
2019-03-06T21:53:18.028Z,7.10
2019-03-06T21:55:49.429Z,7.10
2019-03-06T21:58:20.992Z,7.10
2019-03-06T22:00:52.777Z,7.10
2019-03-06T22:03:24.797Z,7.10
2019-03-06T22:05:56.765Z,7.10
2019-03-06T22:08:28.111Z,7.10
2019-03-06T22:10:59.567Z,7.00
2019-03-06T22:13:30.889Z,7.00
2019-03-06T22:16:02.417Z,7.00
2019-03-06T22:18:33.844Z,7.10
2019-03-06T22:21:05.231Z,7.10
2019-03-06T22:23:36.503Z,7.10
2019-03-06T22:26:08.411Z,7.10
2019-03-06T22:28:41.083Z,7.10
2019-03-06T22:31:12.568Z,7.10
2019-03-06T22:33:44.005Z,7.10
2019-03-06T22:36:15.577Z,7.10
2019-03-06T22:38:46.995Z,7.10
2019-03-06T22:41:18.365Z,7.10
2019-03-06T22:43:49.976Z,7.20
2019-03-06T22:46:21.603Z,7.20
2019-03-06T22:48:53.388Z,7.10
2019-03-06T22:51:25.488Z,7.10
2019-03-06T22:53:57.101Z,7.10
2019-03-06T22:56:28.597Z,7.10
2019-03-06T22:59:00.583Z,7.10
2019-03-06T23:01:35.876Z,7.10
2019-03-06T23:04:08.061Z,7.10
2019-03-06T23:06:39.451Z,7.00
2019-03-06T23:09:14.308Z,7.00
2019-03-06T23:11:46.427Z,7.00
2019-03-06T23:14:17.802Z,7.00
2019-03-06T23:16:49.335Z,7.00
2019-03-06T23:19:20.825Z,7.00
2019-03-06T23:21:52.256Z,7.00
2019-03-06T23:24:23.704Z,7.00
2019-03-06T23:26:55.485Z,7.10
2019-03-06T23:29:27.105Z,7.10
2019-03-06T23:31:58.567Z,7.10
2019-03-06T23:34:30.411Z,7.10
2019-03-06T23:37:01.767Z,7.00
2019-03-06T23:39:33.418Z,7.10
2019-03-06T23:42:06.110Z,7.00
2019-03-06T23:44:37.765Z,7.00
2019-03-06T23:47:09.203Z,7.10
2019-03-06T23:49:40.750Z,7.10
2019-03-06T23:52:18.769Z,7.10
2019-03-06T23:54:50.218Z,7.10
2019-03-06T23:57:21.821Z,7.10
2019-03-06T23:59:53.309Z,6.90
